Time;durP1;ratioP1;P1;durP2;ratioP2;P2;SDS_P1;SDS_P2;PMS_P1;PMS_P2;Temp;Humidity;BMP_temperature;BMP_pressure;BME280_temperature;BME280_humidity;BME280_pressure;Samples;Min_cycle;Max_cycle;Signal;HPM_P1;HPM_P2
2021/08/22 00:00:55;;;;;;;14.50;12.82;;;21.40;96.70;;;;;;5013185;28;20492;-83
2021/08/22 00:03:21;;;;;;;13.07;11.68;;;21.40;96.70;;;;;;5038441;28;20032;-83
2021/08/22 00:05:47;;;;;;;13.43;12.02;;;21.40;96.80;;;;;;5046792;28;20363;-83
2021/08/22 00:08:15;;;;;;;13.68;12.18;;;21.30;96.70;;;;;;5037140;28;20029;-83
2021/08/22 00:10:40;;;;;;;15.35;12.75;;;21.30;96.80;;;;;;5028520;28;20033;-83
2021/08/22 00:13:06;;;;;;;13.23;11.82;;;21.30;96.80;;;;;;5015577;28;20039;-83
2021/08/22 00:15:32;;;;;;;13.90;12.50;;;21.30;96.80;;;;;;5013956;28;20021;-83
2021/08/22 00:17:57;;;;;;;13.55;12.15;;;21.30;96.90;;;;;;4994288;28;20064;-84
2021/08/22 00:20:23;;;;;;;13.45;12.05;;;21.30;96.90;;;;;;5016081;28;20049;-83
2021/08/22 00:22:49;;;;;;;13.20;11.73;;;21.20;96.80;;;;;;4992219;28;20033;-83
2021/08/22 00:25:15;;;;;;;13.57;11.82;;;21.20;96.80;;;;;;5030645;28;20445;-83
2021/08/22 00:27:41;;;;;;;14.00;12.60;;;21.20;96.90;;;;;;5029146;28;20056;-84
2021/08/22 00:30:07;;;;;;;13.50;12.20;;;21.20;96.90;;;;;;5017614;28;20084;-83
2021/08/22 00:32:33;;;;;;;14.32;12.52;;;21.20;96.90;;;;;;5036291;28;20021;-83
2021/08/22 00:35:01;;;;;;;14.07;12.57;;;21.20;97.00;;;;;;5033508;28;20078;-83
2021/08/22 00:37:28;;;;;;;14.93;13.30;;;21.20;97.10;;;;;;5022169;28;20074;-83
2021/08/22 00:39:55;;;;;;;14.55;13.05;;;21.20;97.20;;;;;;5057465;28;20021;-83
2021/08/22 00:42:25;;;;;;;15.40;13.70;;;21.20;97.30;;;;;;5042126;28;20386;-83
2021/08/22 00:44:51;;;;;;;14.88;13.23;;;21.10;97.30;;;;;;5054099;28;20096;-83
2021/08/22 00:47:17;;;;;;;14.65;13.10;;;21.00;97.30;;;;;;5028739;28;20424;-84
2021/08/22 00:49:43;;;;;;;17.45;14.38;;;21.00;97.40;;;;;;5020481;28;20037;-84
2021/08/22 00:52:08;;;;;;;15.73;14.02;;;20.90;97.40;;;;;;5032326;28;20389;-83
2021/08/22 00:54:35;;;;;;;17.08;14.55;;;20.90;97.60;;;;;;5021935;28;20025;-84
2021/08/22 00:57:01;;;;;;;16.80;14.23;;;20.90;97.50;;;;;;5067938;28;20017;-84
2021/08/22 00:59:26;;;;;;;17.05;15.35;;;20.80;97.70;;;;;;5029749;28;20031;-83
2021/08/22 01:01:58;;;;;;;17.27;15.48;;;20.80;97.80;;;;;;5039778;28;20486;-83
2021/08/22 01:07:45;;;;;;;17.23;15.27;;;20.80;97.90;;;;;;5074318;28;20032;-83
2021/08/22 01:10:13;;;;;;;18.30;16.38;;;20.80;97.90;;;;;;5056215;28;20035;-83
2021/08/22 01:13:08;;;;;;;17.52;15.73;;;20.70;98.00;;;;;;5029300;28;20021;-83
2021/08/22 01:15:38;;;;;;;17.52;15.73;;;20.70;97.90;;;;;;5025037;28;20021;-83
2021/08/22 01:18:08;;;;;;;19.33;17.42;;;20.70;98.10;;;;;;5041129;28;20116;-83
2021/08/22 01:20:40;;;;;;;19.55;17.50;;;20.70;98.10;;;;;;5056932;28;20032;-86
2021/08/22 01:23:08;;;;;;;20.55;18.38;;;20.60;98.10;;;;;;5055340;28;20112;-85
2021/08/22 01:25:36;;;;;;;21.83;19.52;;;20.60;98.10;;;;;;5040591;28;20016;-86
2021/08/22 01:28:05;;;;;;;20.73;18.63;;;20.60;98.10;;;;;;5039856;28;20031;-85
2021/08/22 01:30:36;;;;;;;20.88;18.67;;;20.50;98.20;;;;;;5021809;28;20025;-86
2021/08/22 01:33:02;;;;;;;19.90;17.90;;;20.50;98.30;;;;;;5046146;28;20033;-81
2021/08/22 01:35:29;;;;;;;21.65;19.48;;;20.50;98.30;;;;;;5038956;28;20029;-81
2021/08/22 01:37:54;;;;;;;20.85;18.23;;;20.50;98.40;;;;;;5025133;28;20022;-85
2021/08/22 01:40:21;;;;;;;20.23;18.10;;;20.50;98.50;;;;;;5048119;28;20032;-85
2021/08/22 01:42:49;;;;;;;20.10;17.60;;;20.50;98.60;;;;;;5021015;28;20025;-86
2021/08/22 01:45:17;;;;;;;19.33;17.40;;;20.50;98.60;;;;;;5018932;28;20234;-85
2021/08/22 01:47:50;;;;;;;18.83;16.92;;;20.50;98.60;;;;;;5054165;28;20047;-85
2021/08/22 01:50:16;;;;;;;18.70;16.88;;;20.50;98.60;;;;;;5046891;28;20058;-85
2021/08/22 01:52:43;;;;;;;18.67;16.85;;;20.50;98.60;;;;;;5047089;28;20095;-85
2021/08/22 01:55:09;;;;;;;18.38;16.42;;;20.50;98.70;;;;;;5037516;28;20362;-85
2021/08/22 01:57:40;;;;;;;17.75;16.05;;;20.40;98.60;;;;;;5040121;28;20021;-83
2021/08/22 02:00:07;;;;;;;16.88;15.13;;;20.50;98.70;;;;;;5022111;28;20392;-82
2021/08/22 02:02:32;;;;;;;16.88;15.18;;;20.40;98.70;;;;;;5022910;28;20505;-82
2021/08/22 02:05:04;;;;;;;17.15;15.45;;;20.40;98.70;;;;;;5021962;28;20028;-83
2021/08/22 02:07:32;;;;;;;15.55;14.00;;;20.50;98.70;;;;;;5054669;28;20017;-83
2021/08/22 02:10:05;;;;;;;16.42;14.73;;;20.40;98.70;;;;;;5067215;28;20078;-82
2021/08/22 02:12:32;;;;;;;14.95;13.43;;;20.40;98.60;;;;;;5055328;28;20458;-83
2021/08/22 02:15:09;;;;;;;17.52;15.70;;;20.40;98.60;;;;;;5023538;28;20017;-83
2021/08/22 02:17:41;;;;;;;14.95;13.35;;;20.40;98.50;;;;;;5037947;28;20063;-83
2021/08/22 02:20:07;;;;;;;13.27;11.93;;;20.30;98.60;;;;;;5042921;28;20028;-83
2021/08/22 02:22:34;;;;;;;12.43;11.10;;;20.20;98.60;;;;;;5034872;28;20025;-83
2021/08/22 02:25:01;;;;;;;12.10;10.90;;;20.20;98.70;;;;;;5015532;28;20487;-83
2021/08/22 02:27:30;;;;;;;12.50;11.20;;;20.20;98.70;;;;;;5024820;28;20023;-83
2021/08/22 02:29:56;;;;;;;13.68;12.25;;;20.20;98.60;;;;;;5060038;28;20024;-83
2021/08/22 02:32:23;;;;;;;13.98;12.52;;;20.10;98.70;;;;;;5050759;28;20465;-83
2021/08/22 02:34:52;;;;;;;15.10;12.77;;;20.10;98.60;;;;;;5036023;28;20025;-83
2021/08/22 02:37:18;;;;;;;14.48;12.98;;;20.00;98.60;;;;;;5040428;28;20462;-83
2021/08/22 02:39:47;;;;;;;13.65;12.23;;;20.00;98.70;;;;;;5041358;28;20025;-84
2021/08/22 02:42:13;;;;;;;13.32;11.93;;;20.00;98.70;;;;;;5018205;28;20025;-84
2021/08/22 02:44:39;;;;;;;14.43;13.00;;;19.90;98.70;;;;;;5022333;28;20465;-84
2021/08/22 02:47:04;;;;;;;13.70;12.00;;;19.90;98.70;;;;;;5039306;28;20039;-84
2021/08/22 02:49:30;;;;;;;13.80;12.38;;;19.80;98.80;;;;;;5014431;28;20089;-84
2021/08/22 02:51:56;;;;;;;13.85;12.45;;;19.80;98.80;;;;;;5035495;28;20120;-84
2021/08/22 02:54:21;;;;;;;13.60;12.20;;;19.80;98.90;;;;;;5031018;28;20060;-84
2021/08/22 02:56:47;;;;;;;15.50;12.57;;;19.80;99.00;;;;;;5026079;28;20021;-84
2021/08/22 02:59:13;;;;;;;14.07;12.57;;;19.80;98.90;;;;;;5042500;28;20032;-83
2021/08/22 03:01:39;;;;;;;12.70;11.40;;;19.70;98.90;;;;;;5030329;28;20028;-84
2021/08/22 03:04:05;;;;;;;14.65;12.18;;;19.70;99.00;;;;;;5026519;28;20043;-84
2021/08/22 03:06:31;;;;;;;12.98;11.63;;;19.70;99.00;;;;;;5023033;28;20041;-84
2021/08/22 03:08:56;;;;;;;14.48;12.98;;;19.70;99.10;;;;;;5023791;28;20474;-84
2021/08/22 03:11:22;;;;;;;14.60;12.55;;;19.70;99.00;;;;;;5027323;28;20044;-84
2021/08/22 03:13:48;;;;;;;14.90;13.40;;;19.70;99.00;;;;;;5027199;28;20075;-84
2021/08/22 03:16:15;;;;;;;15.00;13.48;;;19.70;99.00;;;;;;5029759;28;20028;-84
2021/08/22 03:18:41;;;;;;;15.30;13.70;;;19.60;99.00;;;;;;5046426;28;20024;-84
2021/08/22 03:21:07;;;;;;;15.93;14.23;;;19.60;98.90;;;;;;5067036;28;20048;-84
2021/08/22 03:23:33;;;;;;;17.88;15.38;;;19.60;99.00;;;;;;5029516;28;20467;-84
2021/08/22 03:26:01;;;;;;;19.25;14.73;;;19.60;98.90;;;;;;5023423;28;20463;-84
2021/08/22 03:28:27;;;;;;;17.70;15.80;;;19.60;98.90;;;;;;5009212;28;20488;-84
2021/08/22 03:31:11;;;;;;;17.27;15.48;;;19.50;98.90;;;;;;5025628;28;20059;-84
2021/08/22 03:33:37;;;;;;;19.17;17.13;;;19.50;98.90;;;;;;5025610;28;20017;-84
2021/08/22 03:36:04;;;;;;;23.48;19.27;;;19.50;99.10;;;;;;5042581;28;20075;-84
2021/08/22 03:38:30;;;;;;;20.92;18.60;;;19.40;99.00;;;;;;5019469;28;20437;-83
2021/08/22 03:40:55;;;;;;;22.23;19.75;;;19.30;99.10;;;;;;5044825;28;20028;-84
2021/08/22 03:43:21;;;;;;;19.58;17.45;;;19.30;99.20;;;;;;5045496;28;20115;-84
2021/08/22 03:45:47;;;;;;;20.73;18.52;;;19.30;99.20;;;;;;5036673;28;20033;-83
2021/08/22 03:48:12;;;;;;;21.17;18.98;;;19.30;99.30;;;;;;5036795;28;20085;-84
2021/08/22 03:50:38;;;;;;;23.67;19.80;;;19.30;99.30;;;;;;5026243;28;20037;-83
2021/08/22 03:53:04;;;;;;;21.17;18.80;;;19.20;99.30;;;;;;5058609;28;20519;-84
2021/08/22 03:55:30;;;;;;;25.55;20.55;;;19.20;99.30;;;;;;5080223;28;20017;-84
2021/08/22 03:57:55;;;;;;;27.25;23.00;;;19.30;99.40;;;;;;5064160;28;20032;-84
2021/08/22 04:00:21;;;;;;;24.77;21.13;;;19.20;99.30;;;;;;5046649;28;20099;-84
2021/08/22 04:02:47;;;;;;;27.42;22.10;;;19.20;99.30;;;;;;5050623;28;20078;-83
2021/08/22 04:05:13;;;;;;;28.13;21.92;;;19.20;99.40;;;;;;5029013;28;20029;-84
2021/08/22 04:07:45;;;;;;;25.52;21.75;;;19.20;99.40;;;;;;5043489;28;20016;-83
2021/08/22 04:10:11;;;;;;;26.23;22.42;;;19.10;99.40;;;;;;5043639;28;20395;-83
2021/08/22 04:12:37;;;;;;;25.67;22.02;;;19.10;99.40;;;;;;5062230;28;20024;-83
2021/08/22 04:15:03;;;;;;;28.17;24.17;;;19.10;99.40;;;;;;5061541;28;20135;-84
2021/08/22 04:17:28;;;;;;;26.27;21.83;;;19.10;99.50;;;;;;5053755;28;20025;-84
2021/08/22 04:19:54;;;;;;;28.38;23.55;;;19.10;99.50;;;;;;5044883;28;20033;-85
2021/08/22 04:22:20;;;;;;;32.17;26.20;;;19.10;99.60;;;;;;5037398;28;20056;-84
2021/08/22 04:24:45;;;;;;;27.75;23.63;;;19.10;99.60;;;;;;5040127;28;20043;-85
2021/08/22 04:27:11;;;;;;;29.10;23.65;;;19.10;99.60;;;;;;5066159;28;20381;-85
2021/08/22 04:29:39;;;;;;;30.00;25.63;;;19.10;99.60;;;;;;5021086;28;20029;-85
2021/08/22 04:32:06;;;;;;;28.23;24.15;;;19.00;99.60;;;;;;5049120;28;20024;-83
2021/08/22 04:34:32;;;;;;;30.00;25.27;;;19.00;99.60;;;;;;5042997;28;20029;-84
2021/08/22 04:36:58;;;;;;;27.35;24.35;;;19.00;99.60;;;;;;5060758;28;20466;-84
2021/08/22 04:39:23;;;;;;;30.83;24.88;;;19.00;99.60;;;;;;5042318;28;20120;-83
2021/08/22 04:41:49;;;;;;;30.65;25.73;;;19.00;99.60;;;;;;5023385;28;20031;-83
2021/08/22 04:44:15;;;;;;;29.42;25.33;;;19.00;99.70;;;;;;5073217;28;20112;-83
2021/08/22 04:46:42;;;;;;;30.98;23.95;;;19.00;99.70;;;;;;5039701;28;20024;-83
2021/08/22 04:49:07;;;;;;;28.08;24.55;;;19.00;99.70;;;;;;5056438;28;20024;-83
2021/08/22 04:51:33;;;;;;;25.35;22.40;;;18.90;99.70;;;;;;5081238;23;20044;-87
2021/08/22 04:53:59;;;;;;;27.35;24.27;;;18.90;99.70;;;;;;5059377;28;20028;-87
2021/08/22 04:56:25;;;;;;;29.15;25.13;;;19.00;99.80;;;;;;5074831;28;20773;-86
2021/08/22 04:58:50;;;;;;;27.98;22.95;;;18.90;99.70;;;;;;5074787;28;20055;-87
2021/08/22 05:01:16;;;;;;;27.40;22.00;;;18.90;99.70;;;;;;5067801;28;20060;-87
2021/08/22 05:03:42;;;;;;;30.83;23.27;;;18.90;99.70;;;;;;5042103;28;20469;-87
2021/08/22 05:06:09;;;;;;;35.42;27.77;;;18.90;99.80;;;;;;5058806;28;20115;-87
2021/08/22 05:08:35;;;;;;;35.65;26.90;;;18.90;99.80;;;;;;5043086;28;20534;-87
2021/08/22 05:11:00;;;;;;;37.15;28.55;;;18.90;99.70;;;;;;5034922;28;20104;-87
2021/08/22 05:13:27;;;;;;;34.78;27.33;;;18.90;99.80;;;;;;5051619;28;20374;-86
2021/08/22 05:15:54;;;;;;;32.10;25.50;;;18.90;99.80;;;;;;5075037;28;20052;-87
2021/08/22 05:18:21;;;;;;;31.85;26.10;;;18.90;99.90;;;;;;5073858;28;20021;-87
2021/08/22 05:20:47;;;;;;;36.63;28.33;;;18.80;99.90;;;;;;5065024;28;20092;-87
2021/08/22 05:23:13;;;;;;;36.40;27.70;;;18.80;99.90;;;;;;5049209;28;20107;-85
2021/08/22 05:25:39;;;;;;;33.75;27.30;;;18.80;99.90;;;;;;5038591;28;20053;-87
2021/08/22 05:28:05;;;;;;;38.15;28.58;;;18.80;99.90;;;;;;5064864;28;20119;-88
2021/08/22 05:30:31;;;;;;;36.35;27.42;;;18.80;99.90;;;;;;5055370;28;20035;-87
2021/08/22 05:32:56;;;;;;;39.22;28.95;;;18.80;99.90;;;;;;5068172;28;20102;-87
2021/08/22 05:35:22;;;;;;;37.60;29.58;;;18.80;99.90;;;;;;5060333;28;20036;-87
2021/08/22 05:37:48;;;;;;;35.72;27.90;;;18.80;99.90;;;;;;5058020;28;20392;-87
2021/08/22 05:40:13;;;;;;;37.72;29.65;;;18.80;99.90;;;;;;5061459;28;20021;-87
2021/08/22 05:42:39;;;;;;;37.38;27.13;;;18.80;99.90;;;;;;5041385;28;20362;-87
2021/08/22 05:45:05;;;;;;;36.65;28.92;;;18.80;99.90;;;;;;5058058;28;20024;-87
2021/08/22 05:47:31;;;;;;;41.33;30.33;;;18.90;99.90;;;;;;5037936;28;20032;-87
2021/08/22 05:49:57;;;;;;;37.45;28.15;;;18.90;99.90;;;;;;5027672;28;20033;-88
2021/08/22 05:52:23;;;;;;;42.10;30.92;;;18.90;99.90;;;;;;5068470;28;20159;-87
2021/08/22 05:54:49;;;;;;;39.95;29.50;;;18.80;99.90;;;;;;5038229;28;20033;-87
2021/08/22 05:57:14;;;;;;;40.40;29.00;;;18.90;99.90;;;;;;5051196;28;20020;-87
2021/08/22 05:59:40;;;;;;;42.50;32.13;;;18.90;99.90;;;;;;5053742;28;20029;-87
2021/08/22 06:02:06;;;;;;;39.22;29.80;;;18.90;99.90;;;;;;5057939;28;20025;-87
2021/08/22 06:04:32;;;;;;;38.92;28.90;;;18.90;99.90;;;;;;5039333;28;20117;-88
2021/08/22 06:06:57;;;;;;;40.67;29.63;;;18.90;99.90;;;;;;5047686;28;20056;-87
2021/08/22 06:09:23;;;;;;;42.47;31.77;;;18.90;99.90;;;;;;5051133;28;20083;-87
2021/08/22 06:11:51;;;;;;;45.85;32.63;;;18.90;99.90;;;;;;5068020;28;20021;-87
2021/08/22 06:14:17;;;;;;;43.72;30.73;;;18.90;99.90;;;;;;5037177;28;20021;-87
2021/08/22 06:16:42;;;;;;;42.63;31.67;;;18.90;99.90;;;;;;5055557;28;20070;-87
2021/08/22 06:19:08;;;;;;;40.13;29.88;;;18.90;99.90;;;;;;5058192;28;20476;-87
2021/08/22 06:21:34;;;;;;;41.78;31.20;;;18.90;99.90;;;;;;5040635;28;20025;-88
2021/08/22 06:24:00;;;;;;;42.85;30.50;;;18.90;99.90;;;;;;5057766;28;20025;-88
2021/08/22 06:26:26;;;;;;;38.47;29.52;;;18.90;99.90;;;;;;5057175;28;20086;-88
2021/08/22 06:28:52;;;;;;;37.92;27.77;;;18.80;99.90;;;;;;5056817;28;20020;-87
2021/08/22 06:31:18;;;;;;;37.30;27.90;;;18.80;99.90;;;;;;5040729;28;20040;-88
2021/08/22 06:33:45;;;;;;;36.03;28.00;;;18.80;99.90;;;;;;5037551;28;20032;-87
2021/08/22 06:36:11;;;;;;;36.85;26.25;;;18.80;99.90;;;;;;5038167;28;20025;-88
2021/08/22 06:38:36;;;;;;;37.25;28.27;;;18.80;99.90;;;;;;5051100;28;20802;-87
2021/08/22 06:41:02;;;;;;;36.92;27.17;;;18.80;99.90;;;;;;5041323;28;20523;-88
2021/08/22 06:43:28;;;;;;;36.95;27.65;;;18.80;99.90;;;;;;5057180;28;20531;-88
2021/08/22 06:45:53;;;;;;;34.08;26.38;;;18.80;99.90;;;;;;5056897;28;20051;-89
2021/08/22 06:48:19;;;;;;;35.92;26.17;;;18.70;99.90;;;;;;5056921;28;20039;-89
2021/08/22 06:50:45;;;;;;;34.88;26.45;;;18.80;99.90;;;;;;5038183;28;20116;-88
2021/08/22 06:53:11;;;;;;;35.10;26.83;;;18.70;99.90;;;;;;5057086;28;20083;-89
2021/08/22 06:55:36;;;;;;;35.78;26.75;;;18.80;99.90;;;;;;5040837;28;20119;-88
2021/08/22 06:58:02;;;;;;;34.78;25.35;;;18.80;99.90;;;;;;5062747;28;20032;-88
2021/08/22 07:00:28;;;;;;;34.05;25.05;;;18.80;99.90;;;;;;5026659;28;20124;-88
2021/08/22 07:02:53;;;;;;;31.92;25.55;;;18.80;99.90;;;;;;5074569;28;20028;-88
2021/08/22 07:05:19;;;;;;;35.10;26.58;;;18.80;99.90;;;;;;5040618;28;20071;-88
2021/08/22 07:07:45;;;;;;;36.10;26.45;;;18.80;99.90;;;;;;5056926;28;20039;-87
2021/08/22 07:10:11;;;;;;;36.70;28.13;;;18.80;99.90;;;;;;5066138;28;20032;-89
2021/08/22 07:12:37;;;;;;;35.42;26.58;;;18.80;99.90;;;;;;5059305;28;20059;-88
2021/08/22 07:15:03;;;;;;;34.63;27.15;;;18.80;99.90;;;;;;5040098;28;20483;-88
2021/08/22 07:17:29;;;;;;;37.22;28.00;;;18.80;99.90;;;;;;5054930;28;20032;-88
2021/08/22 07:19:55;;;;;;;33.58;27.73;;;18.80;99.90;;;;;;5026581;28;20024;-88
2021/08/22 07:22:20;;;;;;;35.92;27.90;;;18.80;99.90;;;;;;5056698;28;20032;-87
2021/08/22 07:24:46;;;;;;;32.20;27.60;;;18.80;99.90;;;;;;5057096;28;20028;-88
2021/08/22 07:27:12;;;;;;;33.90;27.92;;;18.80;99.90;;;;;;5041707;28;20032;-87
2021/08/22 07:29:38;;;;;;;34.92;26.52;;;18.80;99.90;;;;;;5067409;28;20036;-88
2021/08/22 07:32:04;;;;;;;32.60;27.33;;;18.80;99.90;;;;;;5058768;28;20052;-88
2021/08/22 07:34:30;;;;;;;31.15;25.73;;;18.80;99.90;;;;;;5037387;28;20032;-88
2021/08/22 07:36:56;;;;;;;29.73;24.48;;;18.80;99.90;;;;;;5038025;28;20440;-89
2021/08/22 07:39:21;;;;;;;30.35;24.60;;;18.80;99.90;;;;;;5031968;28;20029;-91
2021/08/22 07:41:47;;;;;;;28.40;24.33;;;18.80;99.90;;;;;;5054930;28;20024;-86
2021/08/22 07:44:13;;;;;;;30.55;24.10;;;18.80;99.80;;;;;;5045442;28;20052;-88
2021/08/22 07:46:39;;;;;;;28.30;23.38;;;18.80;99.80;;;;;;5060331;28;20375;-93
2021/08/22 07:49:04;;;;;;;27.85;22.15;;;18.80;99.80;;;;;;5062220;28;20092;-93
2021/08/22 07:51:30;;;;;;;31.05;21.45;;;18.80;99.80;;;;;;5081873;28;20100;-92
2021/08/22 07:53:58;;;;;;;28.52;23.15;;;18.80;99.70;;;;;;5047062;28;20021;-92
2021/08/22 07:56:23;;;;;;;24.92;22.02;;;18.80;99.90;;;;;;5057642;28;20045;-92
2021/08/22 07:58:49;;;;;;;29.63;21.05;;;18.80;99.70;;;;;;5039824;28;20044;-91
2021/08/22 08:01:15;;;;;;;27.98;22.13;;;18.80;99.80;;;;;;5080713;28;20040;-93
2021/08/22 08:03:40;;;;;;;27.17;22.90;;;18.90;99.90;;;;;;5074491;28;20035;-92
2021/08/22 08:06:06;;;;;;;24.38;21.30;;;18.90;99.80;;;;;;5051803;28;20036;-94
2021/08/22 08:08:31;;;;;;;26.15;21.60;;;18.90;99.80;;;;;;5067220;28;20043;-92
2021/08/22 08:10:57;;;;;;;27.73;22.65;;;19.00;99.80;;;;;;5043734;28;20043;-93
2021/08/22 08:13:23;;;;;;;25.60;21.77;;;19.00;99.70;;;;;;5043887;28;20032;-91
2021/08/22 08:15:48;;;;;;;27.35;24.02;;;19.00;99.80;;;;;;5046274;28;20054;-91
2021/08/22 08:18:14;;;;;;;25.95;23.13;;;19.00;99.60;;;;;;5060278;28;20077;-92
2021/08/22 08:20:40;;;;;;;30.08;23.48;;;19.10;99.60;;;;;;5054938;28;20122;-92
2021/08/22 08:23:05;;;;;;;27.27;22.92;;;19.10;99.50;;;;;;5064420;28;20037;-92
2021/08/22 08:25:31;;;;;;;27.27;22.30;;;19.10;99.50;;;;;;5048613;28;20099;-92
2021/08/22 08:27:57;;;;;;;30.20;24.48;;;19.10;99.50;;;;;;5059158;28;20451;-89
2021/08/22 08:30:23;;;;;;;26.67;22.52;;;19.20;99.40;;;;;;5044702;28;20094;-92
2021/08/22 08:32:49;;;;;;;26.25;22.77;;;19.20;99.40;;;;;;5058193;28;20033;-91
2021/08/22 08:35:15;;;;;;;32.78;24.45;;;19.20;99.40;;;;;;5059431;28;20039;-90
2021/08/22 08:37:41;;;;;;;29.40;24.73;;;19.20;99.50;;;;;;5046517;28;20412;-92
2021/08/22 08:40:16;;;;;;;28.23;24.33;;;19.30;99.60;;;;;;5043311;28;20493;-91
2021/08/22 08:42:45;;;;;;;28.83;24.75;;;19.30;99.50;;;;;;5059841;28;20042;-90
2021/08/22 08:45:41;;;;;;;28.55;23.92;;;19.40;99.50;;;;;;5076044;28;20047;-90
2021/08/22 08:48:08;;;;;;;23.77;21.20;;;19.40;99.40;;;;;;5073554;28;20017;-91
2021/08/22 08:50:53;;;;;;;24.40;20.35;;;19.50;99.30;;;;;;5049906;28;20033;-91
2021/08/22 08:53:22;;;;;;;22.50;20.08;;;19.50;99.30;;;;;;5051964;28;20028;-92
2021/08/22 08:55:51;;;;;;;27.27;22.23;;;19.50;99.30;;;;;;5059596;28;20078;-95
2021/08/22 08:58:16;;;;;;;23.10;19.98;;;19.50;99.00;;;;;;5056000;28;20025;-88
2021/08/22 09:00:46;;;;;;;23.15;20.67;;;19.50;98.90;;;;;;5036252;28;20028;-88
2021/08/22 09:03:16;;;;;;;23.52;21.02;;;19.50;98.80;;;;;;5072675;28;20017;-88
2021/08/22 09:06:07;;;;;;;21.42;18.23;;;19.50;98.60;;;;;;5041978;28;20028;-88
2021/08/22 09:09:11;;;;;;;24.02;21.20;;;19.60;98.70;;;;;;5060260;28;20113;-89
2021/08/22 09:12:19;;;;;;;21.52;18.95;;;19.60;98.60;;;;;;5046787;28;20029;-88
2021/08/22 09:15:13;;;;;;;21.40;17.75;;;19.60;98.40;;;;;;5066636;28;20043;-89
2021/08/22 09:18:03;;;;;;;19.63;17.52;;;19.60;98.50;;;;;;5068600;28;20016;-88
2021/08/22 09:20:47;;;;;;;19.23;17.23;;;19.70;98.50;;;;;;5072855;28;20024;-88
2021/08/22 09:23:50;;;;;;;20.67;18.48;;;19.70;98.60;;;;;;5078819;28;20029;-88
2021/08/22 09:26:43;;;;;;;20.58;17.67;;;19.70;98.50;;;;;;5064067;28;20104;-88
2021/08/22 09:30:04;;;;;;;22.23;19.83;;;19.80;98.20;;;;;;5060346;28;20103;-90
2021/08/22 09:32:58;;;;;;;21.55;18.98;;;19.80;98.40;;;;;;5043789;28;20021;-93
2021/08/22 09:35:30;;;;;;;21.85;19.15;;;19.90;98.30;;;;;;5057710;28;20037;-90
2021/08/22 09:38:23;;;;;;;21.80;19.50;;;19.90;98.00;;;;;;5044237;28;20083;-89
2021/08/22 09:41:01;;;;;;;23.50;17.42;;;19.80;98.00;;;;;;5075560;28;20084;-91
2021/08/22 09:44:15;;;;;;;19.08;17.00;;;19.80;98.10;;;;;;5057630;28;20088;-89
2021/08/22 09:46:56;;;;;;;21.92;17.42;;;19.90;97.80;;;;;;5003236;28;20125;-90
2021/08/22 09:49:56;;;;;;;21.48;17.90;;;19.90;98.00;;;;;;5049074;28;20068;-87
2021/08/22 09:52:46;;;;;;;20.23;18.02;;;19.90;98.10;;;;;;5056609;28;20048;-87
2021/08/22 09:55:34;;;;;;;21.27;18.90;;;19.90;98.00;;;;;;5061276;28;20036;-89
2021/08/22 09:58:11;;;;;;;19.25;17.17;;;19.90;97.70;;;;;;5074620;28;20025;-88
2021/08/22 10:01:01;;;;;;;18.33;16.45;;;19.90;97.30;;;;;;5072387;28;20032;-87
2021/08/22 10:04:14;;;;;;;18.30;16.48;;;19.90;97.20;;;;;;5066403;28;20025;-87
2021/08/22 10:07:04;;;;;;;21.05;15.98;;;19.90;97.30;;;;;;5028472;28;20036;-87
2021/08/22 10:09:42;;;;;;;19.35;17.33;;;19.90;97.40;;;;;;5057372;28;20032;-91
2021/08/22 10:12:09;;;;;;;15.80;14.25;;;19.80;97.30;;;;;;5077695;28;20063;-87
2021/08/22 10:14:39;;;;;;;15.70;14.10;;;19.80;97.40;;;;;;5052303;28;20029;-88
2021/08/22 10:17:07;;;;;;;15.70;14.07;;;19.80;97.50;;;;;;5060298;28;20024;-88
2021/08/22 10:19:33;;;;;;;16.13;14.52;;;19.80;97.60;;;;;;5092879;28;20059;-89
2021/08/22 10:22:20;;;;;;;15.60;13.27;;;19.80;97.50;;;;;;5047661;28;20028;-88
2021/08/22 10:24:48;;;;;;;17.75;15.60;;;19.80;97.50;;;;;;5058650;28;20024;-89
2021/08/22 10:27:33;;;;;;;17.13;15.20;;;19.80;97.40;;;;;;5057345;28;20048;-91
2021/08/22 10:30:02;;;;;;;16.00;14.40;;;19.80;97.40;;;;;;5074876;28;20102;-90
2021/08/22 10:32:32;;;;;;;18.15;15.60;;;19.80;97.50;;;;;;5067036;28;20035;-88
2021/08/22 10:35:21;;;;;;;16.17;14.25;;;19.80;97.50;;;;;;5066771;28;20032;-88
2021/08/22 10:37:47;;;;;;;14.32;12.75;;;19.80;97.60;;;;;;5040752;28;20068;-88
2021/08/22 10:40:25;;;;;;;16.75;14.77;;;19.80;97.70;;;;;;5051678;28;20027;-88
2021/08/22 10:43:07;;;;;;;17.73;14.23;;;19.90;97.80;;;;;;5067216;28;20111;-88
2021/08/22 10:45:48;;;;;;;17.10;14.50;;;19.90;97.80;;;;;;5054689;28;20100;-89
2021/08/22 10:48:23;;;;;;;15.48;13.73;;;19.90;97.60;;;;;;5078135;28;20028;-91
2021/08/22 10:54:48;;;;;;;14.70;13.15;;;19.90;97.40;;;;;;5078564;28;20499;-89
2021/08/22 10:57:43;;;;;;;14.77;13.25;;;19.90;97.50;;;;;;5061540;28;20025;-89
2021/08/22 11:00:29;;;;;;;13.55;12.15;;;20.00;97.50;;;;;;5061656;28;20056;-89
2021/08/22 11:02:56;;;;;;;14.20;12.70;;;20.00;97.60;;;;;;5067763;28;20031;-89
2021/08/22 11:08:44;;;;;;;15.88;12.52;;;20.10;97.40;;;;;;5079276;28;20039;-92
2021/08/22 11:11:09;;;;;;;13.93;12.43;;;20.10;97.30;;;;;;5059664;28;20457;-89
2021/08/22 11:13:41;;;;;;;14.30;12.80;;;20.20;97.30;;;;;;5043644;28;20029;-89
2021/08/22 11:16:11;;;;;;;16.52;14.85;;;20.30;97.40;;;;;;5059837;28;20021;-93
2021/08/22 11:18:44;;;;;;;16.20;14.50;;;20.30;97.20;;;;;;5050676;28;20020;-93
2021/08/22 11:21:10;;;;;;;15.75;14.15;;;20.40;96.90;;;;;;5068545;28;20020;-92
2021/08/22 11:23:35;;;;;;;15.13;13.73;;;20.50;96.50;;;;;;5084685;28;20023;-94
2021/08/22 11:26:06;;;;;;;15.93;14.32;;;20.50;96.60;;;;;;5049339;28;20043;-92
2021/08/22 11:28:32;;;;;;;;;;;20.60;96.20;;;;;;5072741;28;20060;-86
2021/08/22 11:30:58;;;;;;;14.43;12.95;;;20.60;96.00;;;;;;5066301;28;20312;-89
2021/08/22 11:33:28;;;;;;;14.65;13.10;;;20.70;95.80;;;;;;5066645;28;20044;-88
2021/08/22 11:35:53;;;;;;;13.38;12.13;;;20.70;95.50;;;;;;5051913;28;20024;-88
2021/08/22 11:38:19;;;;;;;14.07;12.68;;;20.70;95.60;;;;;;5049979;28;20016;-88
2021/08/22 11:40:45;;;;;;;13.93;12.55;;;20.70;95.80;;;;;;5064052;28;20392;-88
2021/08/22 11:43:13;;;;;;;12.93;11.63;;;20.80;95.70;;;;;;5062529;28;20052;-87
2021/08/22 11:45:44;;;;;;;13.02;11.57;;;20.80;95.90;;;;;;5047911;28;20056;-89
2021/08/22 11:48:19;;;;;;;14.80;13.23;;;20.90;96.00;;;;;;5063800;28;20028;-90
2021/08/22 11:50:45;;;;;;;12.75;11.55;;;21.00;95.00;;;;;;5077916;28;20052;-90
2021/08/22 11:53:11;;;;;;;15.68;12.75;;;21.00;95.20;;;;;;5061629;28;20053;-89
2021/08/22 11:55:39;;;;;;;13.13;11.77;;;21.00;94.80;;;;;;5061584;28;20090;-95
2021/08/22 11:58:12;;;;;;;13.25;11.85;;;21.00;95.00;;;;;;5074453;22;20053;-82
2021/08/22 12:00:42;;;;;;;13.18;11.50;;;21.00;94.80;;;;;;5076691;28;20351;-84
2021/08/22 12:03:26;;;;;;;12.02;10.82;;;21.10;94.90;;;;;;5063687;28;20021;-83
2021/08/22 12:05:59;;;;;;;12.93;11.23;;;21.10;95.20;;;;;;5045001;28;20032;-83
2021/08/22 12:08:27;;;;;;;12.80;11.10;;;21.20;94.00;;;;;;5038299;28;20116;-83
2021/08/22 12:11:08;;;;;;;12.63;11.35;;;21.20;94.10;;;;;;5056932;28;20589;-84
2021/08/22 12:13:36;;;;;;;11.35;10.13;;;21.30;93.50;;;;;;5056718;28;20031;-83
2021/08/22 12:16:19;;;;;;;12.27;11.07;;;21.30;93.90;;;;;;5037225;28;20040;-83
2021/08/22 12:18:45;;;;;;;12.18;10.88;;;21.40;94.10;;;;;;5042757;28;20015;-83
2021/08/22 12:21:14;;;;;;;13.63;11.13;;;21.40;94.30;;;;;;5057207;28;20127;-83
2021/08/22 12:23:40;;;;;;;13.75;11.90;;;21.60;94.40;;;;;;5056626;28;20105;-83
2021/08/22 12:26:29;;;;;;;13.00;11.35;;;21.70;94.50;;;;;;5056290;28;20474;-84
2021/08/22 12:28:56;;;;;;;14.15;12.65;;;21.80;93.50;;;;;;5053486;28;20028;-83
2021/08/22 12:31:31;;;;;;;12.82;10.93;;;21.90;92.70;;;;;;5047620;28;20386;-84
2021/08/22 12:33:57;;;;;;;14.45;12.20;;;21.90;92.80;;;;;;5072748;28;20483;-84
2021/08/22 12:36:40;;;;;;;13.43;12.00;;;22.00;92.90;;;;;;5053092;28;20052;-84
2021/08/22 12:39:09;;;;;;;13.65;12.30;;;22.10;92.30;;;;;;5056394;28;20063;-84
2021/08/22 12:41:48;;;;;;;13.70;11.15;;;22.10;92.30;;;;;;5056180;28;20081;-84
2021/08/22 12:44:20;;;;;;;11.75;10.20;;;22.10;92.60;;;;;;5056331;28;20021;-84
2021/08/22 12:46:49;;;;;;;10.98;8.48;;;22.20;92.70;;;;;;5056674;28;20437;-84
2021/08/22 12:49:15;;;;;;;11.32;8.82;;;22.20;91.70;;;;;;5056292;28;20020;-85
2021/08/22 12:51:51;;;;;;;9.07;6.55;;;22.20;91.10;;;;;;5039547;28;20032;-84